createdAt,value
2019-02-18T00:00:44.063Z,0.00
2019-02-18T00:01:44.085Z,0.00
2019-02-18T00:02:44.111Z,0.00
2019-02-18T00:03:44.129Z,0.00
2019-02-18T00:04:44.156Z,0.00
2019-02-18T00:05:44.177Z,0.00
2019-02-18T00:06:44.198Z,0.00
2019-02-18T00:07:44.222Z,0.00
2019-02-18T00:08:44.243Z,0.00
2019-02-18T00:09:44.267Z,0.00
2019-02-18T00:10:44.295Z,0.00
2019-02-18T00:11:44.312Z,0.00
2019-02-18T00:12:44.334Z,0.00
2019-02-18T00:13:44.358Z,0.00
2019-02-18T00:14:44.387Z,0.00
2019-02-18T00:15:44.402Z,0.00
2019-02-18T00:16:44.428Z,0.00
2019-02-18T00:17:44.447Z,0.00
2019-02-18T00:18:44.470Z,0.00
2019-02-18T00:19:44.494Z,0.00
2019-02-18T00:20:44.518Z,0.00
2019-02-18T00:21:44.539Z,0.00
2019-02-18T00:22:44.562Z,0.00
2019-02-18T00:23:44.586Z,0.00
2019-02-18T00:24:44.611Z,0.00
2019-02-18T00:25:44.628Z,0.00
2019-02-18T00:26:44.652Z,0.00
2019-02-18T00:27:44.674Z,0.00
2019-02-18T00:28:44.700Z,0.00
2019-02-18T00:29:44.722Z,0.00
2019-02-18T00:30:44.744Z,0.00
2019-02-18T00:31:44.765Z,0.00
2019-02-18T00:32:44.788Z,0.00
2019-02-18T00:33:44.811Z,0.00
2019-02-18T00:34:44.831Z,0.00
2019-02-18T00:35:44.853Z,0.00
2019-02-18T00:36:44.878Z,0.00
2019-02-18T00:37:44.898Z,0.00
2019-02-18T00:38:44.924Z,0.00
2019-02-18T00:39:44.945Z,0.00
2019-02-18T00:40:44.967Z,0.00
2019-02-18T00:41:44.989Z,0.00
2019-02-18T00:42:45.012Z,0.00
2019-02-18T00:43:45.037Z,0.00
2019-02-18T00:44:45.058Z,0.00
2019-02-18T00:45:45.078Z,0.00
2019-02-18T00:46:45.102Z,0.00
2019-02-18T00:47:45.133Z,0.00
2019-02-18T00:48:45.145Z,0.00
2019-02-18T00:49:45.166Z,0.00
2019-02-18T00:50:45.189Z,0.00
2019-02-18T00:51:45.213Z,0.00
2019-02-18T00:52:45.236Z,0.00
2019-02-18T00:53:45.259Z,0.00
2019-02-18T00:54:45.281Z,0.00
2019-02-18T00:55:45.304Z,0.00
2019-02-18T00:56:45.326Z,0.00
2019-02-18T00:57:45.349Z,0.00
2019-02-18T00:58:45.369Z,0.00
2019-02-18T00:59:45.394Z,0.00
2019-02-18T01:00:45.413Z,0.00
2019-02-18T01:01:45.434Z,0.00
2019-02-18T01:02:45.459Z,0.00
2019-02-18T01:03:45.478Z,0.00
2019-02-18T01:04:45.501Z,0.00
2019-02-18T01:05:45.523Z,0.00
2019-02-18T01:06:45.545Z,0.00
2019-02-18T01:07:45.572Z,0.00
2019-02-18T01:08:45.592Z,0.00
2019-02-18T01:09:45.615Z,0.00
2019-02-18T01:10:45.640Z,0.00
2019-02-18T01:11:45.659Z,0.00
2019-02-18T01:12:45.679Z,0.00
2019-02-18T01:13:45.704Z,0.00
2019-02-18T01:14:45.725Z,0.00
2019-02-18T01:15:45.747Z,0.00
2019-02-18T01:16:45.775Z,0.00
2019-02-18T01:17:45.795Z,0.00
2019-02-18T01:18:45.812Z,0.00
2019-02-18T01:19:45.837Z,0.00
2019-02-18T01:20:45.858Z,0.00
2019-02-18T01:21:45.881Z,0.00
2019-02-18T01:22:45.902Z,0.00
2019-02-18T01:23:45.924Z,0.00
2019-02-18T01:24:45.946Z,0.00
2019-02-18T01:25:45.970Z,0.00
2019-02-18T01:26:45.993Z,0.00
2019-02-18T01:27:46.016Z,0.00
2019-02-18T01:28:46.036Z,0.00
2019-02-18T01:29:46.057Z,0.00
2019-02-18T01:30:46.078Z,0.00
2019-02-18T01:31:46.101Z,0.00
2019-02-18T01:32:46.123Z,0.00
2019-02-18T01:33:46.148Z,0.00
2019-02-18T01:34:46.169Z,0.00
2019-02-18T01:35:46.189Z,0.00
2019-02-18T01:36:46.214Z,0.00
2019-02-18T01:37:46.388Z,0.00
2019-02-18T01:38:46.260Z,0.00
2019-02-18T01:39:46.278Z,0.00
2019-02-18T01:40:46.301Z,0.00
2019-02-18T01:41:46.322Z,0.00
2019-02-18T01:42:46.346Z,0.00
2019-02-18T01:43:46.367Z,0.00
2019-02-18T01:44:46.392Z,0.00
2019-02-18T01:45:46.412Z,0.00
2019-02-18T01:46:46.442Z,0.00
2019-02-18T01:47:46.454Z,0.00
2019-02-18T01:48:46.478Z,0.00
2019-02-18T01:49:46.500Z,0.00
2019-02-18T01:50:46.523Z,0.00
2019-02-18T01:51:46.544Z,0.00
2019-02-18T01:52:46.568Z,0.00
2019-02-18T01:53:46.589Z,0.00
2019-02-18T01:54:46.610Z,0.00
2019-02-18T01:55:46.638Z,0.00
2019-02-18T01:56:46.653Z,0.00
2019-02-18T01:57:46.678Z,0.00
2019-02-18T01:58:46.702Z,0.00
2019-02-18T01:59:46.728Z,0.00
2019-02-18T02:00:46.744Z,0.00
2019-02-18T02:01:46.767Z,0.00
2019-02-18T02:02:46.786Z,0.00
2019-02-18T02:03:46.809Z,0.00
2019-02-18T02:04:46.831Z,0.00
2019-02-18T02:05:46.852Z,0.00
2019-02-18T02:06:46.878Z,0.00
2019-02-18T02:07:55.944Z,0.00
2019-02-18T02:08:46.919Z,0.00
2019-02-18T02:09:46.942Z,0.00
2019-02-18T02:10:47.012Z,0.00
2019-02-18T02:11:46.983Z,0.00
2019-02-18T02:12:47.006Z,0.00
2019-02-18T02:13:47.029Z,0.00
2019-02-18T02:14:47.048Z,0.00
2019-02-18T02:15:47.071Z,0.00
2019-02-18T02:16:47.094Z,0.00
2019-02-18T02:17:47.116Z,0.00
2019-02-18T02:18:47.141Z,0.00
2019-02-18T02:19:47.158Z,0.00
2019-02-18T02:20:47.252Z,0.00
2019-02-18T02:21:47.205Z,0.00
2019-02-18T02:22:47.229Z,0.00
2019-02-18T02:23:47.247Z,0.00
2019-02-18T02:24:47.266Z,0.00
2019-02-18T02:25:47.294Z,0.00
2019-02-18T02:26:47.311Z,0.00
2019-02-18T02:27:47.330Z,0.00
2019-02-18T02:28:47.353Z,0.00
2019-02-18T02:29:47.375Z,0.00
2019-02-18T02:30:47.397Z,0.00
2019-02-18T02:31:47.417Z,0.00
2019-02-18T02:32:47.441Z,0.00
2019-02-18T02:33:47.462Z,0.00
2019-02-18T02:34:47.490Z,0.00
2019-02-18T02:35:47.503Z,0.00
2019-02-18T02:36:47.528Z,0.00
2019-02-18T02:37:47.550Z,0.00
2019-02-18T02:38:47.570Z,0.00
2019-02-18T02:39:47.588Z,0.00
2019-02-18T02:40:47.611Z,0.00
2019-02-18T02:41:47.633Z,0.00
2019-02-18T02:42:47.654Z,0.00
2019-02-18T02:43:47.682Z,0.00
2019-02-18T02:44:47.695Z,0.00
2019-02-18T02:45:47.719Z,0.00
2019-02-18T02:46:47.740Z,0.00
2019-02-18T02:47:47.759Z,0.00
2019-02-18T02:48:47.781Z,0.00
2019-02-18T02:49:47.802Z,0.00
2019-02-18T02:50:47.826Z,0.00
2019-02-18T02:51:47.844Z,0.00
2019-02-18T02:52:47.876Z,0.00
2019-02-18T02:53:47.914Z,0.00
2019-02-18T02:54:47.910Z,0.00
2019-02-18T02:55:47.932Z,0.00
2019-02-18T02:56:47.952Z,0.00
2019-02-18T02:57:47.973Z,0.00
2019-02-18T02:58:47.996Z,0.00
2019-02-18T02:59:48.017Z,0.00
2019-02-18T03:00:48.037Z,0.00
2019-02-18T03:01:48.057Z,0.00
2019-02-18T03:02:48.078Z,0.00
2019-02-18T03:03:48.103Z,0.00
2019-02-18T03:04:48.121Z,0.00
2019-02-18T03:05:48.143Z,0.00
2019-02-18T03:06:48.165Z,0.00
2019-02-18T03:07:48.183Z,0.00
2019-02-18T03:08:48.212Z,0.00
2019-02-18T03:09:48.229Z,0.00
2019-02-18T03:10:48.278Z,0.00
2019-02-18T03:11:48.273Z,0.00
2019-02-18T03:12:48.290Z,0.00
2019-02-18T03:13:48.314Z,0.00
2019-02-18T03:14:48.335Z,0.00
2019-02-18T03:15:48.356Z,0.00
2019-02-18T03:16:48.379Z,0.00
2019-02-18T03:17:48.403Z,0.00
2019-02-18T03:18:48.416Z,0.00
2019-02-18T03:19:48.439Z,0.00
2019-02-18T03:20:48.460Z,0.00
2019-02-18T03:21:48.480Z,0.00
2019-02-18T03:22:48.501Z,0.00
2019-02-18T03:23:48.521Z,0.00
2019-02-18T03:24:48.543Z,0.00
2019-02-18T03:25:48.564Z,0.00
2019-02-18T03:26:48.587Z,0.00
2019-02-18T03:27:48.604Z,0.00
2019-02-18T03:28:48.627Z,0.00
2019-02-18T03:29:48.647Z,0.00
2019-02-18T03:30:48.670Z,0.00
2019-02-18T03:31:48.689Z,0.00
2019-02-18T03:32:48.737Z,0.00
2019-02-18T03:33:48.738Z,0.00
2019-02-18T03:34:48.755Z,0.00
2019-02-18T03:35:48.773Z,0.00
2019-02-18T03:36:48.796Z,0.00
2019-02-18T03:37:48.815Z,0.00
2019-02-18T03:38:48.835Z,0.00
2019-02-18T03:39:48.859Z,0.00
2019-02-18T03:40:48.877Z,0.00
2019-02-18T03:41:48.899Z,0.00
2019-02-18T03:42:48.920Z,0.00
2019-02-18T03:43:48.940Z,0.00
2019-02-18T03:44:48.962Z,0.00
2019-02-18T03:45:48.982Z,0.00
2019-02-18T03:46:50.723Z,0.00
2019-02-18T03:47:49.023Z,0.00
2019-02-18T03:48:49.050Z,0.00
2019-02-18T03:49:49.073Z,0.00
2019-02-18T03:50:49.091Z,0.00
2019-02-18T03:51:49.111Z,0.00
2019-02-18T03:52:49.131Z,0.00
2019-02-18T03:53:49.153Z,0.00
2019-02-18T03:54:49.171Z,0.00
2019-02-18T03:55:49.195Z,0.00
2019-02-18T03:56:49.213Z,0.00
2019-02-18T03:57:49.234Z,0.00
2019-02-18T03:58:49.254Z,0.00
2019-02-18T03:59:49.277Z,0.00
2019-02-18T04:00:49.299Z,0.00
2019-02-18T04:01:49.317Z,0.00
2019-02-18T04:02:49.337Z,0.00
2019-02-18T04:03:49.358Z,0.00
2019-02-18T04:04:49.380Z,0.00
2019-02-18T04:05:49.399Z,0.00
2019-02-18T04:06:49.421Z,0.00
2019-02-18T04:07:49.442Z,0.00
2019-02-18T04:08:49.466Z,0.00
2019-02-18T04:09:49.487Z,0.00
2019-02-18T04:10:49.506Z,0.00
2019-02-18T04:11:49.525Z,0.00
2019-02-18T04:12:49.547Z,0.00
2019-02-18T04:13:49.569Z,0.00
2019-02-18T04:14:49.601Z,0.00
2019-02-18T04:15:49.607Z,0.00
2019-02-18T04:16:49.627Z,0.00
2019-02-18T04:17:49.650Z,0.00
2019-02-18T04:18:49.680Z,0.00
2019-02-18T04:19:49.693Z,0.00
2019-02-18T04:20:49.719Z,0.00
2019-02-18T04:21:49.732Z,0.00
2019-02-18T04:22:49.757Z,0.00
2019-02-18T04:23:49.776Z,0.00
2019-02-18T04:24:49.797Z,0.00
2019-02-18T04:25:49.816Z,0.00
2019-02-18T04:26:49.836Z,0.00
2019-02-18T04:27:49.859Z,0.00
2019-02-18T04:28:49.877Z,0.00
2019-02-18T04:29:49.899Z,0.00
2019-02-18T04:30:49.919Z,0.00
2019-02-18T04:31:49.943Z,0.00
2019-02-18T04:32:49.962Z,0.00
2019-02-18T04:33:49.981Z,0.00
2019-02-18T04:34:50.003Z,0.00
2019-02-18T04:35:50.026Z,0.00
2019-02-18T04:36:50.047Z,0.00
2019-02-18T04:37:50.064Z,0.00
2019-02-18T04:38:53.979Z,0.00
2019-02-18T04:39:50.104Z,0.00
2019-02-18T04:40:50.134Z,0.00
2019-02-18T04:41:50.158Z,0.00
2019-02-18T04:42:50.175Z,0.00
2019-02-18T04:43:50.198Z,0.00
2019-02-18T04:44:50.211Z,0.00
2019-02-18T04:45:50.236Z,0.00
2019-02-18T04:46:50.252Z,0.00
2019-02-18T04:47:50.272Z,0.00
2019-02-18T04:48:50.292Z,0.00
2019-02-18T04:49:50.319Z,0.00
2019-02-18T04:50:50.334Z,0.00
2019-02-18T04:51:50.354Z,0.00
2019-02-18T04:52:50.379Z,0.00
2019-02-18T04:53:50.397Z,0.00
2019-02-18T04:54:50.419Z,0.00
2019-02-18T04:55:50.438Z,0.00
2019-02-18T04:56:50.459Z,0.00
2019-02-18T04:57:50.480Z,0.00
2019-02-18T04:58:50.500Z,0.00
2019-02-18T04:59:50.521Z,0.00
2019-02-18T05:00:50.545Z,0.00
2019-02-18T05:01:50.572Z,0.00
2019-02-18T05:02:50.584Z,0.00
2019-02-18T05:03:50.607Z,0.00
2019-02-18T05:04:50.625Z,0.00
2019-02-18T05:05:50.646Z,0.00
2019-02-18T05:06:50.675Z,4.00
2019-02-18T05:07:50.688Z,4.00
2019-02-18T05:08:50.709Z,4.00
2019-02-18T05:09:50.729Z,0.00
2019-02-18T05:10:50.749Z,0.00
2019-02-18T05:11:50.771Z,4.00
2019-02-18T05:12:50.795Z,4.00
2019-02-18T05:13:50.818Z,0.00
2019-02-18T05:14:50.834Z,4.00
2019-02-18T05:15:50.862Z,8.00
2019-02-18T05:16:50.874Z,4.00
2019-02-18T05:17:50.896Z,8.00
2019-02-18T05:18:50.916Z,8.00
2019-02-18T05:19:50.944Z,8.00
2019-02-18T05:20:50.962Z,8.00
2019-02-18T05:21:50.983Z,12.00
2019-02-18T05:22:51.001Z,12.00
2019-02-18T05:23:51.022Z,12.00
2019-02-18T05:24:51.042Z,20.00
2019-02-18T05:25:51.065Z,20.00
2019-02-18T05:26:51.090Z,24.00
2019-02-18T05:27:51.108Z,28.00
2019-02-18T05:28:51.126Z,32.00
2019-02-18T05:29:51.148Z,40.00
2019-02-18T05:30:51.170Z,44.00
2019-02-18T05:31:51.191Z,48.00
2019-02-18T05:32:51.214Z,56.00
2019-02-18T05:33:51.238Z,68.00
2019-02-18T05:34:51.256Z,80.00
2019-02-18T05:35:51.277Z,92.00
2019-02-18T05:36:51.309Z,104.00
2019-02-18T05:37:51.320Z,120.00
2019-02-18T05:38:51.339Z,136.00
2019-02-18T05:39:51.360Z,152.00
2019-02-18T05:40:51.383Z,172.00
2019-02-18T05:41:51.403Z,192.00
2019-02-18T05:42:51.425Z,220.00
2019-02-18T05:43:51.447Z,244.00
2019-02-18T05:44:51.471Z,272.00
2019-02-18T05:45:51.490Z,300.00
2019-02-18T05:46:51.510Z,336.00
2019-02-18T05:47:51.529Z,368.00
2019-02-18T05:48:51.553Z,404.00
2019-02-18T05:49:51.573Z,444.00
2019-02-18T05:50:51.601Z,484.00
2019-02-18T05:51:51.617Z,532.00
2019-02-18T05:52:51.636Z,568.00
2019-02-18T05:53:51.661Z,612.00
2019-02-18T05:54:51.682Z,656.00
2019-02-18T05:55:51.702Z,704.00
2019-02-18T05:56:51.729Z,748.00
2019-02-18T05:57:51.747Z,788.00
2019-02-18T05:58:51.768Z,836.00
2019-02-18T05:59:51.791Z,888.00
2019-02-18T06:00:51.816Z,936.00
2019-02-18T06:01:51.834Z,988.00
2019-02-18T06:02:51.855Z,1040.00
2019-02-18T06:03:51.878Z,1096.00
2019-02-18T06:04:51.898Z,1148.00
2019-02-18T06:05:51.921Z,1204.00
2019-02-18T06:06:51.943Z,1260.00
2019-02-18T06:07:51.963Z,1320.00
2019-02-18T06:08:51.984Z,1388.00
2019-02-18T06:09:52.011Z,1452.00
2019-02-18T06:10:52.032Z,1532.00
2019-02-18T06:11:52.051Z,1608.00
2019-02-18T06:12:52.098Z,1680.00
2019-02-18T06:13:52.096Z,1760.00
2019-02-18T06:14:52.117Z,1868.00
2019-02-18T06:15:52.142Z,2028.00
2019-02-18T06:16:52.164Z,2160.00
2019-02-18T06:17:52.184Z,2232.00
2019-02-18T06:18:52.204Z,2348.00
2019-02-18T06:19:52.229Z,2492.00
2019-02-18T06:20:52.250Z,2680.00
2019-02-18T06:21:52.272Z,2924.00
2019-02-18T06:22:52.303Z,2980.00
2019-02-18T06:23:52.317Z,2964.00
2019-02-18T06:24:52.338Z,3004.00
2019-02-18T06:25:52.364Z,3056.00
2019-02-18T06:26:52.389Z,3144.00
2019-02-18T06:27:52.412Z,3260.00
2019-02-18T06:28:52.431Z,3348.00
2019-02-18T06:29:52.454Z,3360.00
2019-02-18T06:30:54.900Z,3388.00
2019-02-18T06:31:52.501Z,3532.00
2019-02-18T06:32:52.526Z,3700.00
2019-02-18T06:33:52.558Z,3608.00
2019-02-18T06:34:52.572Z,3388.00
2019-02-18T06:35:52.604Z,3288.00
2019-02-18T06:36:52.617Z,3260.00
2019-02-18T06:37:52.641Z,3256.00
2019-02-18T06:38:52.667Z,3148.00
2019-02-18T06:39:52.692Z,3144.00
2019-02-18T06:40:52.720Z,3436.00
2019-02-18T06:41:52.737Z,3752.00
2019-02-18T06:42:52.767Z,3788.00
2019-02-18T06:43:52.788Z,3824.00
2019-02-18T06:44:52.811Z,4116.00
2019-02-18T06:45:52.837Z,4272.00
2019-02-18T06:46:52.860Z,4200.00
2019-02-18T06:47:52.882Z,4216.00
2019-02-18T06:48:52.909Z,4260.00
2019-02-18T06:49:52.932Z,4428.00
2019-02-18T06:50:52.957Z,4476.00
2019-02-18T06:51:52.979Z,4488.00
2019-02-18T06:52:53.004Z,4592.00
2019-02-18T06:53:53.033Z,4720.00
2019-02-18T06:54:53.058Z,4972.00
2019-02-18T06:55:53.081Z,5216.00
2019-02-18T06:56:53.110Z,5468.00
2019-02-18T06:57:53.130Z,5376.00
2019-02-18T06:58:53.175Z,5664.00
2019-02-18T06:59:53.179Z,6152.00
2019-02-18T07:00:53.203Z,6648.00
2019-02-18T07:01:53.229Z,6444.00
2019-02-18T07:02:53.254Z,6804.00
2019-02-18T07:03:53.279Z,6752.00
2019-02-18T07:04:53.305Z,6224.00
2019-02-18T07:05:53.338Z,6184.00
2019-02-18T07:06:53.357Z,5992.00
2019-02-18T07:07:53.381Z,5868.00
2019-02-18T07:08:53.412Z,5660.00
2019-02-18T07:09:53.435Z,5836.00
2019-02-18T07:10:53.460Z,6268.00
2019-02-18T07:11:53.483Z,6084.00
2019-02-18T07:12:53.510Z,5624.00
2019-02-18T07:13:53.537Z,5728.00
2019-02-18T07:14:53.563Z,6192.00
2019-02-18T07:15:53.595Z,6244.00
2019-02-18T07:16:53.613Z,5840.00
2019-02-18T07:17:53.693Z,5268.00
2019-02-18T07:18:53.667Z,6064.00
2019-02-18T07:19:53.694Z,7200.00
2019-02-18T07:20:53.719Z,7608.00
2019-02-18T07:21:53.748Z,7624.00
2019-02-18T07:22:53.774Z,7568.00
2019-02-18T07:23:53.798Z,8556.00
2019-02-18T07:24:53.829Z,9668.00
2019-02-18T07:25:53.851Z,10392.00
2019-02-18T07:26:53.879Z,10840.00
2019-02-18T07:27:53.910Z,11432.00
2019-02-18T07:28:53.932Z,11432.00
2019-02-18T07:29:53.961Z,11872.00
2019-02-18T07:30:53.986Z,12024.00
2019-02-18T07:31:54.012Z,11968.00
2019-02-18T07:32:54.043Z,12144.00
2019-02-18T07:33:54.067Z,12412.00
2019-02-18T07:34:54.103Z,12640.00
2019-02-18T07:35:54.125Z,13120.00
2019-02-18T07:36:54.150Z,13684.00
2019-02-18T07:37:54.179Z,13804.00
2019-02-18T07:38:54.207Z,13584.00
2019-02-18T07:40:00.998Z,13428.00
2019-02-18T07:40:54.266Z,13372.00
2019-02-18T07:41:54.292Z,13320.00
2019-02-18T07:42:54.320Z,13568.00
2019-02-18T07:43:54.353Z,13828.00
2019-02-18T07:44:54.524Z,14196.00
2019-02-18T07:45:54.406Z,13872.00
2019-02-18T07:46:54.438Z,14160.00
2019-02-18T07:47:54.464Z,13384.00
2019-02-18T07:48:54.494Z,16032.00
2019-02-18T07:49:54.523Z,16288.00
2019-02-18T07:50:54.555Z,16288.00
2019-02-18T07:51:54.595Z,16256.00
2019-02-18T07:52:54.612Z,16192.00
2019-02-18T07:53:54.647Z,16512.00
2019-02-18T07:54:54.670Z,16832.00
2019-02-18T07:55:54.698Z,17088.00
2019-02-18T07:56:54.728Z,17184.00
2019-02-18T07:57:54.788Z,17088.00
2019-02-18T07:58:54.788Z,16832.00
2019-02-18T07:59:54.822Z,16160.00
2019-02-18T08:00:54.850Z,15200.00
2019-02-18T08:01:54.882Z,14688.00
2019-02-18T08:02:54.909Z,14752.00
2019-02-18T08:03:54.943Z,14656.00
2019-02-18T08:04:54.968Z,14400.00
2019-02-18T08:05:54.999Z,14192.00
2019-02-18T08:06:55.030Z,14112.00
2019-02-18T08:07:55.066Z,14024.00
2019-02-18T08:08:55.091Z,14244.00
2019-02-18T08:09:55.127Z,14632.00
2019-02-18T08:10:55.152Z,15104.00
2019-02-18T08:11:55.183Z,15264.00
2019-02-18T08:12:55.216Z,16032.00
2019-02-18T08:13:55.246Z,16128.00
2019-02-18T08:14:55.277Z,15616.00
2019-02-18T08:15:55.309Z,18592.00
2019-02-18T08:16:55.338Z,31040.00
2019-02-18T08:17:55.375Z,36864.00
2019-02-18T08:18:55.403Z,29184.00
2019-02-18T08:19:55.441Z,28352.00
2019-02-18T08:20:55.465Z,27104.00
2019-02-18T08:21:55.502Z,26432.00
2019-02-18T08:22:55.531Z,26464.00
2019-02-18T08:23:59.955Z,26112.00
2019-02-18T08:24:55.594Z,25728.00
2019-02-18T08:25:55.628Z,25472.00
2019-02-18T08:26:55.658Z,25472.00
2019-02-18T08:27:55.691Z,25792.00
2019-02-18T08:28:55.724Z,26176.00
2019-02-18T08:29:55.754Z,26144.00
2019-02-18T08:30:55.789Z,25536.00
2019-02-18T08:31:55.822Z,26464.00
2019-02-18T08:32:55.855Z,27264.00
2019-02-18T08:33:55.892Z,26656.00
2019-02-18T08:34:55.920Z,26976.00
2019-02-18T08:35:55.955Z,27808.00
2019-02-18T08:36:55.986Z,27136.00
2019-02-18T08:37:56.024Z,27008.00
2019-02-18T08:38:56.051Z,27712.00
2019-02-18T08:39:56.085Z,28352.00
2019-02-18T08:40:56.118Z,28928.00
2019-02-18T08:41:56.153Z,28480.00
2019-02-18T08:42:56.185Z,28768.00
2019-02-18T08:43:56.220Z,29280.00
2019-02-18T08:44:56.251Z,28576.00
2019-02-18T08:45:56.288Z,29088.00
2019-02-18T08:46:56.318Z,29088.00
2019-02-18T08:47:56.356Z,29664.00
2019-02-18T08:48:56.385Z,29536.00
2019-02-18T08:49:56.419Z,29280.00
2019-02-18T08:50:56.452Z,29088.00
2019-02-18T08:51:56.485Z,29472.00
2019-02-18T08:52:56.523Z,30144.00
2019-02-18T08:53:56.554Z,29760.00
2019-02-18T08:54:57.023Z,31104.00
2019-02-18T08:55:56.623Z,31776.00
2019-02-18T08:56:56.655Z,32896.00
2019-02-18T08:57:56.689Z,32128.00
2019-02-18T08:58:56.725Z,31744.00
2019-02-18T08:59:56.760Z,31552.00
2019-02-18T09:01:02.531Z,32416.00
2019-02-18T09:01:56.826Z,31840.00
2019-02-18T09:02:56.862Z,31456.00
2019-02-18T09:03:56.895Z,32480.00
2019-02-18T09:04:56.929Z,32480.00
2019-02-18T09:05:56.966Z,32192.00
2019-02-18T09:06:57.001Z,31424.00
2019-02-18T09:07:57.038Z,32960.00
2019-02-18T09:08:57.070Z,33664.00
2019-02-18T09:09:57.105Z,32736.00
2019-02-18T09:10:57.140Z,33056.00
2019-02-18T09:11:57.237Z,35072.00
2019-02-18T09:12:57.207Z,34240.00
2019-02-18T09:13:57.244Z,33824.00
2019-02-18T09:14:57.277Z,33472.00
2019-02-18T09:16:00.145Z,34592.00
2019-02-18T09:16:57.344Z,35840.00
2019-02-18T09:17:57.379Z,36544.00
2019-02-18T09:18:57.415Z,37280.00
2019-02-18T09:19:57.448Z,37600.00
2019-02-18T09:20:57.483Z,37504.00
2019-02-18T09:21:57.518Z,36672.00
2019-02-18T09:22:57.552Z,36736.00
2019-02-18T09:23:57.603Z,35680.00
2019-02-18T09:24:57.620Z,34592.00
2019-02-18T09:25:57.659Z,36352.00
2019-02-18T09:26:57.690Z,37344.00
2019-02-18T09:27:57.732Z,37472.00
2019-02-18T09:28:57.763Z,37856.00
2019-02-18T09:29:57.793Z,37216.00
2019-02-18T09:30:57.832Z,36576.00
2019-02-18T09:31:57.867Z,37408.00
2019-02-18T09:32:57.905Z,36352.00
2019-02-18T09:33:57.934Z,35584.00
2019-02-18T09:35:02.022Z,36736.00
2019-02-18T09:35:58.007Z,37504.00
2019-02-18T09:36:58.041Z,38720.00
2019-02-18T09:37:58.078Z,37760.00
2019-02-18T09:38:58.114Z,36736.00
2019-02-18T09:39:58.147Z,36416.00
2019-02-18T09:40:58.180Z,36768.00
2019-02-18T09:41:58.218Z,37248.00
2019-02-18T09:42:58.258Z,37888.00
2019-02-18T09:43:58.295Z,37664.00
2019-02-18T09:44:58.325Z,37568.00
2019-02-18T09:45:58.357Z,38048.00
2019-02-18T09:46:58.394Z,38592.00
2019-02-18T09:47:58.434Z,37920.00
2019-02-18T09:48:58.465Z,39136.00
2019-02-18T09:49:58.501Z,39392.00
2019-02-18T09:51:00.164Z,38592.00
2019-02-18T09:51:58.573Z,37664.00
2019-02-18T09:52:58.607Z,38560.00
2019-02-18T09:53:58.645Z,39264.00
2019-02-18T09:54:58.682Z,38080.00
2019-02-18T09:55:58.719Z,37056.00
2019-02-18T09:56:58.752Z,37664.00
2019-02-18T09:57:58.786Z,37856.00
2019-02-18T09:58:58.824Z,37088.00
2019-02-18T09:59:58.862Z,38048.00
2019-02-18T10:00:58.892Z,37536.00
2019-02-18T10:01:58.929Z,37088.00
2019-02-18T10:02:58.966Z,37120.00
2019-02-18T10:03:59.000Z,37344.00
2019-02-18T10:04:59.038Z,37568.00
2019-02-18T10:05:59.076Z,38304.00
2019-02-18T10:06:59.112Z,38656.00
2019-02-18T10:07:59.145Z,38816.00
2019-02-18T10:08:59.181Z,39360.00
2019-02-18T10:09:59.218Z,38816.00
2019-02-18T10:10:59.256Z,38944.00
2019-02-18T10:11:59.290Z,40320.00
2019-02-18T10:12:59.757Z,40288.00
2019-02-18T10:13:59.367Z,39968.00
2019-02-18T10:14:59.398Z,38976.00
2019-02-18T10:15:59.435Z,38560.00
2019-02-18T10:16:59.472Z,38784.00
2019-02-18T10:17:59.507Z,37600.00
2019-02-18T10:18:59.545Z,37792.00
2019-02-18T10:19:59.581Z,39136.00
2019-02-18T10:20:59.618Z,39488.00
2019-02-18T10:21:59.657Z,40544.00
2019-02-18T10:22:59.689Z,41120.00
2019-02-18T10:23:59.729Z,41280.00
2019-02-18T10:24:59.762Z,38752.00
2019-02-18T10:25:59.797Z,37216.00
2019-02-18T10:26:59.838Z,29440.00
2019-02-18T10:27:59.870Z,44384.00
2019-02-18T10:28:59.908Z,41664.00
2019-02-18T10:29:59.944Z,39776.00
2019-02-18T10:30:59.982Z,48128.00
2019-02-18T10:32:00.019Z,24704.00
2019-02-18T10:33:00.053Z,35648.00
2019-02-18T10:34:00.087Z,31520.00
2019-02-18T10:35:00.354Z,31840.00
2019-02-18T10:36:00.165Z,25088.00
2019-02-18T10:37:00.196Z,41696.00
2019-02-18T10:38:00.248Z,44128.00
2019-02-18T10:39:00.270Z,43616.00
2019-02-18T10:40:00.379Z,48608.00
2019-02-18T10:41:06.941Z,42944.00
2019-02-18T10:42:00.374Z,37728.00
2019-02-18T10:43:00.408Z,31872.00
2019-02-18T10:44:00.447Z,45984.00
2019-02-18T10:45:00.482Z,51392.00
2019-02-18T10:46:00.515Z,39648.00
2019-02-18T10:47:00.552Z,50368.00
2019-02-18T10:48:00.585Z,26144.00
2019-02-18T10:49:00.626Z,24256.00
2019-02-18T10:50:00.659Z,25920.00
2019-02-18T10:51:00.696Z,26848.00
2019-02-18T10:52:00.729Z,33056.00
2019-02-18T10:53:00.764Z,34016.00
2019-02-18T10:54:00.801Z,25568.00
2019-02-18T10:55:00.835Z,27520.00
2019-02-18T10:56:00.874Z,48416.00
2019-02-18T10:57:00.905Z,29984.00
2019-02-18T10:58:00.940Z,24352.00
2019-02-18T10:59:00.974Z,22464.00
2019-02-18T11:00:01.012Z,21024.00
2019-02-18T11:01:01.048Z,20864.00
2019-02-18T11:02:01.079Z,20800.00
2019-02-18T11:03:01.114Z,20032.00
2019-02-18T11:04:01.149Z,19392.00
2019-02-18T11:05:01.195Z,18752.00
2019-02-18T11:06:01.215Z,18336.00
2019-02-18T11:07:01.254Z,18144.00
2019-02-18T11:08:01.283Z,17920.00
2019-02-18T11:09:01.317Z,17792.00
2019-02-18T11:10:01.351Z,17984.00
2019-02-18T11:11:01.384Z,17856.00
2019-02-18T11:12:01.419Z,17824.00
2019-02-18T11:13:01.454Z,19392.00
2019-02-18T11:14:01.485Z,16644.00
2019-02-18T11:15:01.523Z,16212.00
2019-02-18T11:16:01.548Z,16132.00
2019-02-18T11:17:01.585Z,16056.00
2019-02-18T11:18:01.614Z,15820.00
2019-02-18T11:19:01.649Z,15256.00
2019-02-18T11:20:01.680Z,15120.00
2019-02-18T11:21:01.713Z,15708.00
2019-02-18T11:22:01.743Z,15956.00
2019-02-18T11:23:01.777Z,16280.00
2019-02-18T11:24:01.811Z,18496.00
2019-02-18T11:25:01.849Z,22592.00
2019-02-18T11:26:01.871Z,18560.00
2019-02-18T11:27:01.904Z,19456.00
2019-02-18T11:28:01.939Z,20768.00
2019-02-18T11:29:01.970Z,20640.00
2019-02-18T11:30:01.999Z,19392.00
2019-02-18T11:31:02.035Z,18752.00
2019-02-18T11:32:02.063Z,20352.00
2019-02-18T11:33:02.095Z,19072.00
2019-02-18T11:34:02.128Z,17984.00
2019-02-18T11:35:02.165Z,17024.00
2019-02-18T11:36:02.191Z,16440.00
2019-02-18T11:37:02.228Z,16288.00
2019-02-18T11:38:02.259Z,15848.00
2019-02-18T11:39:02.292Z,16084.00
2019-02-18T11:40:02.323Z,16288.00
2019-02-18T11:41:02.355Z,15488.00
2019-02-18T11:42:02.386Z,15196.00
2019-02-18T11:43:02.418Z,15180.00
2019-02-18T11:44:02.450Z,15064.00
2019-02-18T11:45:02.484Z,15000.00
2019-02-18T11:46:02.515Z,15208.00
2019-02-18T11:47:02.546Z,15220.00
2019-02-18T11:48:02.578Z,15332.00
2019-02-18T11:49:02.611Z,15616.00
2019-02-18T11:50:02.642Z,15764.00
2019-02-18T11:51:02.675Z,16228.00
2019-02-18T11:52:02.704Z,16748.00
2019-02-18T11:53:02.738Z,17312.00
2019-02-18T11:54:02.769Z,17696.00
2019-02-18T11:55:02.803Z,17856.00
2019-02-18T11:56:02.830Z,18016.00
2019-02-18T11:57:02.861Z,18016.00
2019-02-18T11:58:02.893Z,17952.00
2019-02-18T11:59:02.926Z,17984.00
2019-02-18T12:00:02.955Z,17920.00
2019-02-18T12:01:02.989Z,17920.00
2019-02-18T12:02:03.021Z,17632.00
2019-02-18T12:03:09.335Z,17472.00
2019-02-18T12:04:03.081Z,17120.00
2019-02-18T12:05:03.112Z,16436.00
2019-02-18T12:06:03.142Z,15676.00
2019-02-18T12:07:03.172Z,15076.00
2019-02-18T12:08:03.203Z,14668.00
2019-02-18T12:09:03.233Z,14552.00
2019-02-18T12:10:03.268Z,14500.00
2019-02-18T12:11:03.296Z,14284.00
2019-02-18T12:12:03.328Z,14080.00
2019-02-18T12:13:03.358Z,13832.00
2019-02-18T12:14:03.388Z,13732.00
2019-02-18T12:15:03.419Z,13604.00
2019-02-18T12:16:03.452Z,13564.00
2019-02-18T12:17:03.484Z,13040.00
2019-02-18T12:18:03.516Z,12532.00
2019-02-18T12:19:03.541Z,12144.00
2019-02-18T12:20:03.577Z,11852.00
2019-02-18T12:21:03.605Z,11416.00
2019-02-18T12:22:03.632Z,11168.00
2019-02-18T12:23:03.667Z,10744.00
2019-02-18T12:24:03.694Z,10432.00
2019-02-18T12:25:03.731Z,10296.00
2019-02-18T12:26:03.757Z,9908.00
2019-02-18T12:27:03.786Z,9516.00
2019-02-18T12:28:03.815Z,9104.00